Time;durP1;ratioP1;P1;durP2;ratioP2;P2;SDS_P1;SDS_P2;PMS_P1;PMS_P2;Temp;Humidity;BMP_temperature;BMP_pressure;BME280_temperature;BME280_humidity;BME280_pressure;Samples;Min_cycle;Max_cycle;Signal;HPM_P1;HPM_P2
2022/04/15 00:01:30;;;;;;;6.82;5.40;;;12.90;99.90;;;;;;4900616;29;20177;-69
2022/04/15 00:03:57;;;;;;;9.27;5.70;;;12.80;99.90;;;;;;4915686;29;20052;-70
2022/04/15 00:06:24;;;;;;;9.13;5.75;;;12.80;99.90;;;;;;4914613;29;20055;-69
2022/04/15 00:08:51;;;;;;;7.18;5.22;;;12.70;99.90;;;;;;4915048;29;20059;-69
2022/04/15 00:11:18;;;;;;;8.88;5.03;;;12.60;99.90;;;;;;4914315;29;20056;-69
2022/04/15 00:13:45;;;;;;;6.95;5.47;;;12.60;99.90;;;;;;4914234;29;20056;-69
2022/04/15 00:16:13;;;;;;;8.98;5.47;;;12.50;99.90;;;;;;4910316;29;20131;-70
2022/04/15 00:18:40;;;;;;;9.90;5.57;;;12.50;99.90;;;;;;4915020;29;20044;-69
2022/04/15 00:21:06;;;;;;;8.73;5.82;;;12.40;99.90;;;;;;4898595;29;20059;-71
2022/04/15 00:23:34;;;;;;;9.57;4.68;;;12.30;99.90;;;;;;4915541;29;20916;-70
2022/04/15 00:26:01;;;;;;;7.07;4.85;;;12.30;99.90;;;;;;4913651;29;20492;-73
2022/04/15 00:28:29;;;;;;;8.20;5.43;;;12.20;99.90;;;;;;4914321;29;20473;-70
2022/04/15 00:30:57;;;;;;;8.38;5.53;;;12.20;99.90;;;;;;4899537;29;20048;-70
2022/04/15 00:33:24;;;;;;;8.23;6.50;;;12.10;99.90;;;;;;4913593;29;20111;-69
2022/04/15 00:35:51;;;;;;;8.82;5.07;;;12.00;99.90;;;;;;4912954;29;20059;-70
2022/04/15 00:38:18;;;;;;;7.53;6.10;;;12.00;99.90;;;;;;4913386;29;20040;-71
2022/04/15 00:40:45;;;;;;;7.00;4.95;;;12.00;99.90;;;;;;4920966;29;20047;-71
2022/04/15 00:43:12;;;;;;;7.60;5.18;;;11.90;99.90;;;;;;4914580;29;20055;-69
2022/04/15 00:45:44;;;;;;;9.07;6.00;;;11.80;99.90;;;;;;4915041;29;20056;-71
2022/04/15 00:48:14;;;;;;;8.27;4.82;;;11.80;99.90;;;;;;4912784;29;20052;-70
2022/04/15 00:50:40;;;;;;;19.35;11.00;;;11.70;99.90;;;;;;4898318;29;20048;-68
2022/04/15 00:53:11;;;;;;;137.90;111.50;;;11.70;99.90;;;;;;4914862;29;20048;-69
2022/04/15 00:55:39;;;;;;;55.53;42.22;;;11.80;99.90;;;;;;4913719;29;20052;-68
2022/04/15 00:58:06;;;;;;;26.10;18.05;;;11.70;99.90;;;;;;4915477;29;20052;-69
2022/04/15 01:00:35;;;;;;;25.25;18.88;;;11.70;99.90;;;;;;4912485;29;20500;-70
2022/04/15 01:03:03;;;;;;;10.02;8.25;;;11.60;99.90;;;;;;4913524;29;20044;-70
2022/04/15 01:05:30;;;;;;;10.18;6.85;;;11.50;99.90;;;;;;4913899;29;20124;-70
2022/04/15 01:07:57;;;;;;;13.55;9.30;;;11.50;99.90;;;;;;4914920;29;20051;-70
2022/04/15 01:10:25;;;;;;;11.80;6.60;;;11.50;99.90;;;;;;4913002;29;20090;-70
2022/04/15 01:12:54;;;;;;;8.13;5.38;;;11.40;99.90;;;;;;4898833;29;20052;-70
2022/04/15 01:15:41;;;;;;;8.73;5.70;;;11.40;99.90;;;;;;4920440;29;20119;-70
2022/04/15 01:18:08;;;;;;;8.15;5.43;;;11.30;99.90;;;;;;4914250;29;20125;-70
2022/04/15 01:20:34;;;;;;;10.80;5.55;;;11.30;99.90;;;;;;4912951;29;20824;-70
2022/04/15 01:23:09;;;;;;;8.32;5.50;;;11.30;99.90;;;;;;4914060;29;20052;-70
2022/04/15 01:25:36;;;;;;;8.70;5.53;;;11.20;99.90;;;;;;4902253;29;20051;-70
2022/04/15 01:28:03;;;;;;;7.47;4.70;;;11.20;99.90;;;;;;4898828;29;20063;-70
2022/04/15 01:30:30;;;;;;;7.28;5.10;;;11.10;99.90;;;;;;4913448;29;20496;-70
2022/04/15 01:32:57;;;;;;;6.95;5.30;;;11.10;99.90;;;;;;4912416;29;20044;-70
2022/04/15 01:35:26;;;;;;;8.25;4.93;;;11.10;99.90;;;;;;4913493;29;20145;-69
2022/04/15 01:37:53;;;;;;;6.82;4.85;;;11.10;99.90;;;;;;4897970;29;20056;-69
2022/04/15 01:40:20;;;;;;;7.32;4.95;;;11.10;99.90;;;;;;4913560;29;20075;-70
2022/04/15 01:42:47;;;;;;;7.30;4.97;;;11.00;99.90;;;;;;4913093;29;20044;-70
2022/04/15 01:45:14;;;;;;;8.07;4.78;;;11.00;99.90;;;;;;4913246;29;20055;-70
2022/04/15 01:47:41;;;;;;;5.13;4.30;;;11.00;99.90;;;;;;4915893;29;20048;-70
2022/04/15 01:50:08;;;;;;;8.23;4.93;;;11.00;99.90;;;;;;4917341;29;20052;-70
2022/04/15 01:52:35;;;;;;;7.07;5.00;;;10.90;99.90;;;;;;4917121;29;20404;-70
2022/04/15 01:55:03;;;;;;;7.40;5.03;;;10.90;99.90;;;;;;4918543;29;20059;-69
2022/04/15 01:57:29;;;;;;;8.02;6.03;;;10.80;99.90;;;;;;4917503;29;20403;-70
2022/04/15 01:59:56;;;;;;;9.77;5.78;;;10.80;99.90;;;;;;4920641;29;20040;-70
2022/04/15 02:02:23;;;;;;;7.10;4.68;;;10.80;99.90;;;;;;4916152;29;20054;-70
2022/04/15 02:04:50;;;;;;;7.50;5.82;;;10.80;99.90;;;;;;4900684;29;20052;-70
2022/04/15 02:07:17;;;;;;;9.27;5.65;;;10.80;99.90;;;;;;4916860;29;20055;-70
2022/04/15 02:09:44;;;;;;;6.97;4.93;;;10.80;99.90;;;;;;4917557;29;20063;-69
2022/04/15 02:12:11;;;;;;;6.90;4.75;;;10.70;99.90;;;;;;4916467;29;20052;-69
2022/04/15 02:14:38;;;;;;;8.18;4.88;;;10.70;99.90;;;;;;4915268;29;20088;-69
2022/04/15 02:17:05;;;;;;;9.65;5.70;;;10.70;99.90;;;;;;4916711;29;20071;-69
2022/04/15 02:19:31;;;;;;;9.10;5.25;;;10.70;99.90;;;;;;4917475;29;20048;-70
2022/04/15 02:21:59;;;;;;;8.45;5.25;;;10.70;99.90;;;;;;4917362;29;20048;-70
2022/04/15 02:24:26;;;;;;;6.90;5.20;;;10.70;99.90;;;;;;4917884;29;20056;-70
2022/04/15 02:26:53;;;;;;;9.98;5.10;;;10.70;99.90;;;;;;4917499;29;20408;-70
2022/04/15 02:29:20;;;;;;;8.50;5.32;;;10.70;99.90;;;;;;4916291;29;20080;-69
2022/04/15 02:31:47;;;;;;;8.23;5.72;;;10.60;99.90;;;;;;4913098;29;20048;-70
2022/04/15 02:34:14;;;;;;;9.43;5.28;;;10.60;99.90;;;;;;4913602;29;20103;-70
2022/04/15 02:36:40;;;;;;;8.75;5.25;;;10.60;99.90;;;;;;4932636;29;20045;-70
2022/04/15 02:39:10;;;;;;;7.18;4.30;;;10.50;99.90;;;;;;4918182;29;20048;-69
2022/04/15 02:41:41;;;;;;;9.30;5.47;;;10.60;99.90;;;;;;4916417;29;20056;-71
2022/04/15 02:44:08;;;;;;;8.00;5.40;;;10.50;99.90;;;;;;4914792;29;20044;-70
2022/04/15 02:46:35;;;;;;;7.13;5.30;;;10.50;99.90;;;;;;4900773;29;20460;-70
2022/04/15 02:49:02;;;;;;;8.68;5.93;;;10.50;99.90;;;;;;4918554;29;20045;-69
2022/04/15 02:51:29;;;;;;;9.20;5.40;;;10.40;99.90;;;;;;4917721;29;20048;-70
2022/04/15 02:53:56;;;;;;;7.95;5.20;;;10.40;99.90;;;;;;4917771;29;20071;-69
2022/04/15 02:56:23;;;;;;;8.18;4.90;;;10.30;99.90;;;;;;4917465;29;20504;-69
2022/04/15 02:58:50;;;;;;;8.88;4.97;;;10.30;99.90;;;;;;4916621;29;20100;-70
2022/04/15 03:01:17;;;;;;;13.77;6.30;;;10.20;99.90;;;;;;4917230;29;20048;-70
2022/04/15 03:03:44;;;;;;;6.93;5.45;;;10.10;99.90;;;;;;4915753;29;20060;-70
2022/04/15 03:06:11;;;;;;;6.95;5.43;;;10.10;99.90;;;;;;4917725;29;20486;-69
2022/04/15 03:08:37;;;;;;;7.10;5.15;;;10.10;99.90;;;;;;4915377;29;20044;-70
2022/04/15 03:11:06;;;;;;;12.00;6.28;;;10.00;99.90;;;;;;4912936;29;20051;-70
2022/04/15 03:13:34;;;;;;;11.32;6.18;;;10.00;99.90;;;;;;4916849;29;20044;-69
2022/04/15 03:16:03;;;;;;;9.82;5.22;;;10.00;99.90;;;;;;4916528;29;20052;-69
2022/04/15 03:18:30;;;;;;;7.78;5.15;;;9.90;99.90;;;;;;4916882;29;20052;-69
2022/04/15 03:20:58;;;;;;;6.97;5.07;;;9.90;99.90;;;;;;4916822;29;20052;-70
2022/04/15 03:23:24;;;;;;;7.28;5.45;;;9.90;99.90;;;;;;4915337;29;20563;-70
2022/04/15 03:25:51;;;;;;;7.15;5.75;;;9.90;99.90;;;;;;4917448;29;20075;-70
2022/04/15 03:28:19;;;;;;;11.18;5.70;;;9.90;99.90;;;;;;4916837;29;20048;-70
2022/04/15 03:30:46;;;;;;;11.38;6.97;;;9.80;99.90;;;;;;4916983;29;20358;-70
2022/04/15 03:33:13;;;;;;;8.38;5.93;;;9.80;99.90;;;;;;4916403;29;20416;-70
2022/04/15 03:35:39;;;;;;;9.52;5.15;;;9.70;99.90;;;;;;4916970;29;20052;-70
2022/04/15 03:38:06;;;;;;;8.25;5.38;;;9.70;99.90;;;;;;4931164;29;20448;-70
2022/04/15 03:40:33;;;;;;;9.15;5.82;;;9.70;99.90;;;;;;4916982;29;20111;-70
2022/04/15 03:43:00;;;;;;;7.63;5.60;;;9.70;99.90;;;;;;4916759;29;20095;-69
2022/04/15 03:45:28;;;;;;;8.35;5.90;;;9.60;99.90;;;;;;4911664;29;20178;-70
2022/04/15 03:47:55;;;;;;;9.18;5.72;;;9.60;99.90;;;;;;4914752;29;20577;-70
2022/04/15 03:50:22;;;;;;;8.35;5.65;;;9.60;99.90;;;;;;4917568;29;20048;-69
2022/04/15 03:52:49;;;;;;;11.00;5.97;;;9.50;99.90;;;;;;4913874;29;20044;-69
2022/04/15 03:55:20;;;;;;;12.55;7.00;;;9.40;99.90;;;;;;4926881;29;20060;-69
2022/04/15 03:57:47;;;;;;;8.43;5.88;;;9.40;99.90;;;;;;4914746;29;20519;-70
2022/04/15 04:00:21;;;;;;;8.77;5.35;;;9.40;99.90;;;;;;4896828;29;20060;-69
2022/04/15 04:02:52;;;;;;;8.15;5.13;;;9.30;99.90;;;;;;4914175;29;20059;-70
2022/04/15 04:05:20;;;;;;;10.38;6.30;;;9.30;99.90;;;;;;4915930;29;20040;-69
2022/04/15 04:07:47;;;;;;;11.95;6.47;;;9.30;99.90;;;;;;4915294;29;20108;-69
2022/04/15 04:10:14;;;;;;;8.93;5.70;;;9.20;99.90;;;;;;4915134;29;20103;-69
2022/04/15 04:12:42;;;;;;;8.10;5.90;;;9.20;99.90;;;;;;4915144;29;20071;-69
2022/04/15 04:15:10;;;;;;;8.98;6.38;;;9.20;99.90;;;;;;4914093;29;20048;-69
2022/04/15 04:17:36;;;;;;;8.38;5.57;;;9.20;99.90;;;;;;4915050;29;20052;-69
2022/04/15 04:20:07;;;;;;;11.90;5.85;;;9.20;99.90;;;;;;4915413;29;20071;-69
2022/04/15 04:22:35;;;;;;;7.85;5.50;;;9.10;99.90;;;;;;4914214;29;20056;-69
2022/04/15 04:25:02;;;;;;;7.97;5.50;;;9.10;99.90;;;;;;4913965;29;20048;-69
2022/04/15 04:27:30;;;;;;;9.07;5.47;;;9.00;99.90;;;;;;4915795;29;20051;-69
2022/04/15 04:29:57;;;;;;;8.70;5.40;;;9.00;99.90;;;;;;4915635;29;20079;-69
2022/04/15 04:32:24;;;;;;;9.77;6.70;;;9.00;99.90;;;;;;4914938;29;20055;-69
2022/04/15 04:34:51;;;;;;;7.00;5.53;;;8.90;99.90;;;;;;4912633;29;20076;-69
2022/04/15 04:37:18;;;;;;;6.32;5.35;;;8.90;99.90;;;;;;4914442;29;20090;-69
2022/04/15 04:39:45;;;;;;;7.50;5.75;;;8.90;99.90;;;;;;4916527;29;20048;-69
2022/04/15 04:42:12;;;;;;;9.02;5.80;;;8.90;99.90;;;;;;4915341;29;20055;-69
2022/04/15 04:44:39;;;;;;;7.30;5.97;;;8.90;99.90;;;;;;4914236;29;20064;-69
2022/04/15 04:47:09;;;;;;;10.25;5.78;;;8.80;99.90;;;;;;4914103;29;20048;-70
2022/04/15 04:49:37;;;;;;;7.03;5.13;;;8.80;99.90;;;;;;4898499;29;20050;-69
2022/04/15 04:52:04;;;;;;;9.68;6.07;;;8.80;99.90;;;;;;4914263;29;20062;-70
2022/04/15 04:54:31;;;;;;;8.70;5.93;;;8.80;99.90;;;;;;4914957;29;20068;-71
2022/04/15 04:56:58;;;;;;;9.85;6.65;;;8.80;99.90;;;;;;4914356;29;20074;-70
2022/04/15 04:59:25;;;;;;;8.38;5.80;;;8.80;99.90;;;;;;4913726;29;20445;-70
2022/04/15 05:01:52;;;;;;;10.52;6.45;;;8.80;99.90;;;;;;4915359;29;20040;-70
2022/04/15 05:04:19;;;;;;;11.68;6.18;;;8.80;99.90;;;;;;4915387;29;20059;-70
2022/04/15 05:06:47;;;;;;;10.20;5.57;;;8.80;99.90;;;;;;4913765;29;20048;-70
2022/04/15 05:09:13;;;;;;;9.73;6.00;;;8.80;99.90;;;;;;4915111;29;20063;-70
2022/04/15 05:11:40;;;;;;;10.55;6.15;;;8.80;99.90;;;;;;4915826;29;20412;-70
2022/04/15 05:14:07;;;;;;;9.80;6.28;;;8.80;99.90;;;;;;4914845;29;20062;-70
2022/04/15 05:16:34;;;;;;;12.27;7.32;;;8.80;99.90;;;;;;4914083;29;20052;-69
2022/04/15 05:19:01;;;;;;;7.93;5.95;;;8.80;99.90;;;;;;4915282;29;20449;-69
2022/04/15 05:21:28;;;;;;;10.55;6.68;;;8.90;99.90;;;;;;4908371;29;20059;-70
2022/04/15 05:23:55;;;;;;;10.18;5.80;;;8.90;99.90;;;;;;4915118;29;20121;-70
2022/04/15 05:26:21;;;;;;;10.95;5.70;;;9.00;99.90;;;;;;4914871;29;20131;-69
2022/04/15 05:28:48;;;;;;;10.35;5.88;;;9.00;99.90;;;;;;4915074;29;20052;-69
2022/04/15 05:31:15;;;;;;;8.98;6.25;;;9.10;99.90;;;;;;4915567;29;20048;-70
2022/04/15 05:33:42;;;;;;;10.85;6.90;;;9.10;99.90;;;;;;4914950;29;20044;-70
2022/04/15 05:36:09;;;;;;;9.88;5.82;;;9.20;99.90;;;;;;4913677;29;20056;-70
2022/04/15 05:38:36;;;;;;;10.25;6.68;;;9.20;99.90;;;;;;4914334;29;20136;-70
2022/04/15 05:41:02;;;;;;;12.55;7.10;;;9.30;99.90;;;;;;4914868;29;20048;-69
2022/04/15 05:43:29;;;;;;;10.25;7.43;;;9.40;99.90;;;;;;4915164;29;20052;-69
2022/04/15 05:45:56;;;;;;;11.32;7.50;;;9.50;99.90;;;;;;4914876;29;20044;-69
2022/04/15 05:48:23;;;;;;;11.95;6.88;;;9.50;99.90;;;;;;4913459;29;20071;-69
2022/04/15 05:50:51;;;;;;;17.48;6.80;;;9.60;99.90;;;;;;4913557;29;20052;-69
2022/04/15 05:53:18;;;;;;;10.18;6.38;;;9.70;99.90;;;;;;4918011;29;20047;-69
2022/04/15 05:55:45;;;;;;;10.95;7.53;;;9.80;99.90;;;;;;4922221;29;20777;-69
2022/04/15 05:58:12;;;;;;;8.75;6.93;;;9.90;99.90;;;;;;4914654;29;20051;-69
2022/04/15 06:00:39;;;;;;;9.50;6.70;;;10.00;99.90;;;;;;4914656;29;20040;-69
2022/04/15 06:03:07;;;;;;;11.75;7.15;;;10.10;99.90;;;;;;4914625;29;20048;-69
2022/04/15 06:05:35;;;;;;;12.38;7.75;;;10.20;99.90;;;;;;4913346;29;20432;-68
2022/04/15 06:08:02;;;;;;;13.25;8.13;;;10.30;99.90;;;;;;4914831;29;20048;-69
2022/04/15 06:10:30;;;;;;;10.45;7.35;;;10.40;99.90;;;;;;4913734;29;20052;-69
2022/04/15 06:13:09;;;;;;;7.93;6.53;;;10.50;99.90;;;;;;4913456;29;20063;-69
2022/04/15 06:15:41;;;;;;;12.15;7.13;;;10.60;99.90;;;;;;4915188;29;20114;-69
2022/04/15 06:18:11;;;;;;;10.00;7.35;;;10.70;99.90;;;;;;4906179;29;20187;-68
2022/04/15 06:20:41;;;;;;;11.75;7.93;;;10.80;99.90;;;;;;4897948;29;20055;-69
2022/04/15 06:23:08;;;;;;;9.98;6.72;;;10.80;99.90;;;;;;4912669;29;20046;-69
2022/04/15 06:25:35;;;;;;;14.63;8.30;;;10.90;99.90;;;;;;4914745;29;20060;-69
2022/04/15 06:28:07;;;;;;;10.57;7.85;;;11.00;99.90;;;;;;4914143;29;20048;-69
2022/04/15 06:30:34;;;;;;;13.15;9.00;;;11.00;99.90;;;;;;4913702;29;20490;-69
2022/04/15 06:33:01;;;;;;;11.73;8.80;;;11.10;99.90;;;;;;4915151;29;20047;-69
2022/04/15 06:35:29;;;;;;;11.60;7.85;;;11.20;99.90;;;;;;4901099;29;20108;-69
2022/04/15 06:37:56;;;;;;;13.13;8.25;;;11.20;99.90;;;;;;4917594;29;20059;-69
2022/04/15 06:40:22;;;;;;;13.23;8.70;;;11.30;99.90;;;;;;4918099;29;20511;-69
2022/04/15 06:42:49;;;;;;;13.85;8.32;;;11.40;99.90;;;;;;4916445;29;20071;-68
2022/04/15 06:45:22;;;;;;;12.57;7.85;;;11.40;99.90;;;;;;4917413;29;20044;-68
2022/04/15 06:47:50;;;;;;;17.40;8.73;;;11.50;99.90;;;;;;4915540;29;20076;-69
2022/04/15 06:50:19;;;;;;;11.68;7.75;;;11.50;99.90;;;;;;4917391;29;20044;-68
2022/04/15 06:52:46;;;;;;;13.13;10.00;;;11.60;99.90;;;;;;4916567;29;20087;-69
2022/04/15 06:55:13;;;;;;;12.32;8.52;;;11.60;99.90;;;;;;4916286;29;20060;-70
2022/04/15 06:57:41;;;;;;;16.98;8.70;;;11.70;99.90;;;;;;4916579;29;20048;-70
2022/04/15 07:00:08;;;;;;;14.60;8.63;;;11.70;99.90;;;;;;4916171;29;20375;-70
2022/04/15 07:02:36;;;;;;;11.40;9.35;;;11.80;99.90;;;;;;4916568;29;20445;-70
2022/04/15 07:05:09;;;;;;;13.80;9.43;;;11.80;99.90;;;;;;4917221;29;20044;-70
2022/04/15 07:07:37;;;;;;;15.38;9.15;;;11.80;99.90;;;;;;4915926;29;20075;-69
2022/04/15 07:10:08;;;;;;;11.95;8.55;;;11.90;99.90;;;;;;4917269;29;20063;-69
2022/04/15 07:12:35;;;;;;;12.65;9.82;;;12.00;99.90;;;;;;4916315;29;20056;-69
2022/04/15 07:15:02;;;;;;;13.77;9.52;;;12.10;99.90;;;;;;4917490;29;20377;-70
2022/04/15 07:17:30;;;;;;;11.32;8.85;;;12.10;99.90;;;;;;4915707;29;20435;-69
2022/04/15 07:19:56;;;;;;;15.98;9.13;;;12.30;99.90;;;;;;4915841;29;20464;-70
2022/04/15 07:22:23;;;;;;;14.15;8.45;;;12.30;99.90;;;;;;4917225;29;20067;-69
2022/04/15 07:24:50;;;;;;;13.77;9.18;;;12.40;99.90;;;;;;4915753;29;20055;-69
2022/04/15 07:27:17;;;;;;;14.07;8.90;;;12.50;99.90;;;;;;4916436;29;20060;-69
2022/04/15 07:29:50;;;;;;;17.48;9.48;;;12.60;99.90;;;;;;4914147;29;20082;-70
2022/04/15 07:32:21;;;;;;;12.48;8.73;;;12.70;99.90;;;;;;4915736;29;20095;-69
2022/04/15 07:34:49;;;;;;;12.25;7.78;;;12.80;99.90;;;;;;4916966;29;20085;-69
2022/04/15 07:37:16;;;;;;;11.05;7.78;;;12.90;99.90;;;;;;4915850;29;20048;-69
2022/04/15 07:39:44;;;;;;;11.68;8.38;;;13.00;99.90;;;;;;4915927;29;20047;-69
2022/04/15 07:42:14;;;;;;;11.00;7.50;;;13.00;99.90;;;;;;4915271;29;20056;-69
2022/04/15 07:44:41;;;;;;;9.45;7.68;;;13.10;99.90;;;;;;4900692;29;20115;-69
2022/04/15 07:47:08;;;;;;;14.45;7.78;;;13.20;99.90;;;;;;4915741;29;20456;-69
2022/04/15 07:49:35;;;;;;;11.98;8.20;;;13.30;99.90;;;;;;4916610;29;20052;-69
2022/04/15 07:52:04;;;;;;;13.07;7.40;;;13.40;99.90;;;;;;4916926;29;20428;-69
2022/04/15 07:54:32;;;;;;;13.27;7.32;;;13.40;99.90;;;;;;4915485;29;20074;-70
2022/04/15 07:56:59;;;;;;;12.32;7.95;;;13.60;99.90;;;;;;4916267;29;20055;-69
2022/04/15 07:59:27;;;;;;;12.55;8.23;;;13.60;99.90;;;;;;4916302;29;20484;-69
2022/04/15 08:01:54;;;;;;;12.75;7.38;;;13.70;99.90;;;;;;4916470;29;20381;-69
2022/04/15 08:04:21;;;;;;;11.57;8.10;;;13.80;99.90;;;;;;4913476;29;20132;-70
2022/04/15 08:06:48;;;;;;;10.32;7.93;;;13.90;99.90;;;;;;4899956;29;20045;-69
2022/04/15 08:09:19;;;;;;;13.75;7.97;;;14.00;99.90;;;;;;4914543;29;20135;-69
2022/04/15 08:11:45;;;;;;;12.38;7.50;;;14.10;99.90;;;;;;4916197;29;20122;-69
2022/04/15 08:14:12;;;;;;;14.18;8.77;;;14.20;99.90;;;;;;4906031;29;20044;-69
2022/04/15 08:16:39;;;;;;;12.57;8.57;;;14.30;99.90;;;;;;4914779;29;20063;-69
2022/04/15 08:19:06;;;;;;;10.25;6.90;;;14.40;99.90;;;;;;4915760;29;20044;-69
2022/04/15 08:21:33;;;;;;;9.98;7.25;;;14.50;99.90;;;;;;4915028;29;20056;-69
2022/04/15 08:24:01;;;;;;;11.80;7.28;;;14.70;99.90;;;;;;4915352;29;20503;-69
2022/04/15 08:26:29;;;;;;;12.30;7.13;;;14.90;99.90;;;;;;4914656;29;20052;-69
2022/04/15 08:28:56;;;;;;;8.80;6.97;;;15.00;99.90;;;;;;4914302;29;20291;-68
2022/04/15 08:31:23;;;;;;;11.68;7.25;;;15.00;99.90;;;;;;4915295;29;20510;-68
2022/04/15 08:33:50;;;;;;;11.52;6.00;;;15.00;99.90;;;;;;4914535;29;20064;-68
2022/04/15 08:36:17;;;;;;;8.70;6.75;;;15.20;99.90;;;;;;4915311;29;20047;-68
2022/04/15 08:38:44;;;;;;;9.80;5.88;;;15.20;99.90;;;;;;4895221;29;20056;-69
2022/04/15 08:41:12;;;;;;;9.20;6.18;;;15.40;99.90;;;;;;4928379;29;20063;-68
2022/04/15 08:43:41;;;;;;;9.80;7.07;;;15.40;99.90;;;;;;4915409;29;20059;-68
2022/04/15 08:46:08;;;;;;;9.70;5.78;;;15.50;99.90;;;;;;4914361;29;20049;-74
2022/04/15 08:48:35;;;;;;;8.95;7.00;;;15.50;99.90;;;;;;4897496;29;20127;-71
2022/04/15 08:51:02;;;;;;;7.78;6.03;;;15.60;99.90;;;;;;4916161;29;20048;-68
2022/04/15 08:53:36;;;;;;;11.60;6.25;;;15.70;99.90;;;;;;4898608;29;20052;-68
2022/04/15 08:56:03;;;;;;;7.38;5.50;;;15.70;99.90;;;;;;4915171;29;20496;-67
2022/04/15 08:58:30;;;;;;;6.22;5.07;;;15.80;99.90;;;;;;4915423;29;20044;-66
2022/04/15 09:00:57;;;;;;;9.73;6.00;;;15.90;99.90;;;;;;4913954;29;20052;-65
2022/04/15 09:03:24;;;;;;;9.10;6.18;;;16.00;99.90;;;;;;4913435;29;20067;-67
2022/04/15 09:05:51;;;;;;;11.07;5.57;;;16.10;99.90;;;;;;4913681;29;20515;-65
2022/04/15 09:08:18;;;;;;;10.23;6.38;;;16.10;99.90;;;;;;4898001;29;20044;-65
2022/04/15 09:10:56;;;;;;;9.70;6.30;;;16.20;99.90;;;;;;4921411;29;20043;-65
2022/04/15 09:13:28;;;;;;;8.98;5.25;;;16.40;99.90;;;;;;4915262;29;20433;-66
2022/04/15 09:15:55;;;;;;;10.13;6.63;;;16.50;99.90;;;;;;4924710;29;20235;-65
2022/04/15 09:18:29;;;;;;;9.88;5.47;;;16.50;99.90;;;;;;4914507;29;20048;-66
2022/04/15 09:21:17;;;;;;;8.30;5.63;;;16.60;99.90;;;;;;4917706;29;20104;-66
2022/04/15 09:23:46;;;;;;;7.90;5.43;;;16.60;99.90;;;;;;4923910;29;20043;-67
2022/04/15 09:26:13;;;;;;;9.55;5.40;;;16.60;99.90;;;;;;4900669;29;20060;-69
2022/04/15 09:28:40;;;;;;;25.20;21.15;;;16.70;99.90;;;;;;4919887;29;20518;-73
2022/04/15 09:31:13;;;;;;;62.25;54.17;;;16.80;99.90;;;;;;4920967;29;20052;-74
2022/04/15 09:33:54;;;;;;;16.23;12.13;;;16.80;99.90;;;;;;4906220;29;20131;-68
2022/04/15 09:36:34;;;;;;;10.57;6.68;;;16.90;99.90;;;;;;4916295;29;20083;-69
2022/04/15 09:39:14;;;;;;;9.98;5.85;;;16.90;99.70;;;;;;4916214;29;20055;-68
2022/04/15 09:41:48;;;;;;;8.18;5.72;;;17.00;99.90;;;;;;4914948;29;20128;-66
2022/04/15 09:44:15;;;;;;;8.60;5.55;;;17.10;99.90;;;;;;4917078;29;20055;-68
2022/04/15 09:46:44;;;;;;;7.72;5.10;;;17.10;99.90;;;;;;4888900;29;20955;-65
2022/04/15 09:49:11;;;;;;;8.18;5.60;;;17.20;99.90;;;;;;4913639;29;20048;-69
2022/04/15 09:51:54;;;;;;;8.52;5.65;;;17.30;99.90;;;;;;4914213;29;20139;-68
2022/04/15 09:54:28;;;;;;;9.25;5.43;;;17.40;99.90;;;;;;4913614;29;20048;-74
2022/04/15 09:56:57;;;;;;;24.92;19.33;;;17.60;99.90;;;;;;4899135;29;20048;-69
2022/04/15 09:59:24;;;;;;;;;;;17.70;99.90;;;;;;4914445;29;20139;-71
2022/04/15 10:01:56;;;;;;;9.70;6.13;;;17.70;98.10;;;;;;4913897;29;19923;-69
2022/04/15 10:04:24;;;;;;;9.05;5.72;;;17.80;99.10;;;;;;4906880;29;20396;-70
2022/04/15 10:06:51;;;;;;;12.10;5.13;;;17.90;96.20;;;;;;4926933;29;20047;-70
2022/04/15 10:09:18;;;;;;;9.88;5.97;;;17.90;97.80;;;;;;4918415;29;20460;-69
2022/04/15 10:11:46;;;;;;;7.28;5.05;;;18.00;95.30;;;;;;4922074;29;20047;-70
2022/04/15 10:14:14;;;;;;;9.38;5.50;;;17.90;94.90;;;;;;4915348;29;20117;-71
2022/04/15 10:16:42;;;;;;;10.13;5.25;;;18.00;96.10;;;;;;4916125;29;20052;-70
2022/04/15 10:19:10;;;;;;;10.05;4.57;;;18.00;95.70;;;;;;4932942;29;20047;-70
2022/04/15 10:21:41;;;;;;;10.27;5.88;;;18.00;94.10;;;;;;4919172;29;20058;-72
2022/04/15 10:24:09;;;;;;;11.15;5.03;;;18.00;94.40;;;;;;4917006;29;20048;-71
2022/04/15 10:26:40;;;;;;;11.30;5.15;;;18.00;94.70;;;;;;4900066;29;20078;-70
2022/04/15 10:29:09;;;;;;;10.10;5.60;;;18.00;92.90;;;;;;4885810;29;20063;-71
2022/04/15 10:31:46;;;;;;;11.00;5.03;;;18.10;92.90;;;;;;4905816;29;20052;-71
2022/04/15 10:34:14;;;;;;;17.48;11.05;;;18.10;93.50;;;;;;4923858;29;20059;-73
2022/04/15 10:36:56;;;;;;;10.48;6.50;;;18.20;94.60;;;;;;4918722;29;20053;-75
2022/04/15 10:39:26;;;;;;;6.97;5.13;;;18.30;93.50;;;;;;4916241;29;20060;-78
2022/04/15 10:41:57;;;;;;;7.95;4.95;;;18.30;93.50;;;;;;4901549;29;20063;-74
2022/04/15 10:44:38;;;;;;;10.57;5.35;;;18.30;91.90;;;;;;4909159;29;20155;-74
2022/04/15 10:47:12;;;;;;;5.70;4.85;;;18.30;91.50;;;;;;4922836;29;20055;-73
2022/04/15 10:50:03;;;;;;;11.73;5.00;;;18.30;92.20;;;;;;4912109;29;20048;-72
2022/04/15 10:52:34;;;;;;;9.93;5.13;;;18.40;91.00;;;;;;4923156;29;20107;-68
2022/04/15 10:55:06;;;;;;;12.05;5.80;;;18.40;90.10;;;;;;4923057;29;20492;-70
2022/04/15 10:57:46;;;;;;;8.90;4.55;;;18.60;90.80;;;;;;4927343;29;20072;-75
2022/04/15 11:03:27;;;;;;;11.15;7.22;;;18.80;91.00;;;;;;4922898;29;20107;-74
2022/04/15 11:06:03;;;;;;;8.57;5.20;;;18.90;93.50;;;;;;4916249;29;20484;-74
2022/04/15 11:08:50;;;;;;;10.85;7.10;;;19.00;91.20;;;;;;4905619;29;20098;-78
2022/04/15 11:11:18;;;;;;;7.35;4.85;;;19.00;90.20;;;;;;4920195;29;20067;-71
2022/04/15 11:13:48;;;;;;;6.32;3.72;;;19.10;92.70;;;;;;4907605;29;20055;-75
2022/04/15 11:16:16;;;;;;;8.60;5.00;;;19.20;89.30;;;;;;4917322;29;20040;-74
2022/04/15 11:18:47;;;;;;;7.93;5.00;;;19.30;90.00;;;;;;4916607;29;20142;-75
2022/04/15 11:21:22;;;;;;;5.97;4.15;;;19.20;87.10;;;;;;4918016;29;20404;-74
2022/04/15 11:23:53;;;;;;;6.97;3.80;;;19.20;88.00;;;;;;4915162;29;20504;-74
2022/04/15 11:26:24;;;;;;;9.02;3.92;;;19.30;89.20;;;;;;4923293;29;20071;-68
2022/04/15 11:28:52;;;;;;;5.47;3.63;;;19.40;90.10;;;;;;4920270;29;20052;-65
2022/04/15 11:31:20;;;;;;;5.90;3.97;;;19.50;89.30;;;;;;4918036;29;20044;-69
2022/04/15 11:33:47;;;;;;;5.68;3.60;;;19.60;82.60;;;;;;4910815;29;20044;-70
2022/04/15 11:36:15;;;;;;;4.40;2.90;;;19.60;78.80;;;;;;4895258;29;20070;-69
2022/04/15 11:38:43;;;;;;;9.05;3.28;;;19.50;83.50;;;;;;4932871;29;20064;-75
2022/04/15 11:41:10;;;;;;;109.43;12.77;;;19.60;80.70;;;;;;4900551;29;20483;-78
2022/04/15 11:43:42;;;;;;;10.02;3.90;;;19.60;78.40;;;;;;4923114;29;20055;-77
2022/04/15 11:46:09;;;;;;;26.98;22.95;;;19.60;77.70;;;;;;4922274;29;20048;-74
2022/04/15 11:48:36;;;;;;;9.57;7.35;;;19.60;79.30;;;;;;4899315;29;20056;-75
2022/04/15 11:51:04;;;;;;;6.97;3.88;;;19.60;78.10;;;;;;4916096;29;20543;-79
2022/04/15 11:53:30;;;;;;;5.60;3.17;;;19.70;76.30;;;;;;4916271;29;20063;-78
2022/04/15 11:55:59;;;;;;;5.88;2.78;;;19.90;79.30;;;;;;4935803;29;20522;-78
2022/04/15 11:58:34;;;;;;;7.10;2.63;;;20.10;77.50;;;;;;4934894;29;20128;-78
2022/04/15 12:01:01;;;;;;;3.13;2.40;;;20.10;74.00;;;;;;4904482;29;20134;-78
2022/04/15 12:03:32;;;;;;;3.30;2.20;;;20.20;74.20;;;;;;4897813;29;20135;-79
2022/04/15 12:05:58;;;;;;;5.00;2.80;;;20.20;76.40;;;;;;4896298;29;20052;-78
2022/04/15 12:08:25;;;;;;;3.20;2.08;;;20.40;75.80;;;;;;4899926;29;20056;-78
2022/04/15 12:10:53;;;;;;;2.50;1.77;;;20.40;74.70;;;;;;4896916;29;20048;-78
2022/04/15 12:13:20;;;;;;;5.13;2.10;;;20.50;73.70;;;;;;4909266;29;20048;-77
2022/04/15 12:15:47;;;;;;;14.10;9.15;;;20.60;74.90;;;;;;4899692;29;20052;-78
2022/04/15 12:18:14;;;;;;;4.00;3.25;;;20.70;72.00;;;;;;4915708;29;20059;-79
2022/04/15 12:20:41;;;;;;;3.47;2.38;;;20.80;70.10;;;;;;4909868;29;20286;-78
2022/04/15 12:23:13;;;;;;;3.83;2.53;;;20.60;70.90;;;;;;4888166;29;20515;-78
2022/04/15 12:31:31;;;;;;;4.00;1.95;;;20.60;67.40;;;;;;4914710;29;20048;-77
2022/04/15 12:33:59;;;;;;;4.25;2.17;;;20.60;70.10;;;;;;4898665;29;20044;-78
2022/04/15 12:36:55;;;;;;;5.40;2.20;;;20.70;70.50;;;;;;4916577;29;20060;-78
2022/04/15 12:39:22;;;;;;;3.83;1.90;;;20.90;68.90;;;;;;4884611;29;20075;-78
2022/04/15 12:41:49;;;;;;;3.60;2.00;;;21.00;69.70;;;;;;4907112;29;20111;-79
2022/04/15 12:44:23;;;;;;;4.18;2.10;;;21.10;72.60;;;;;;4912110;29;20061;-78
2022/04/15 12:47:02;;;;;;;2.95;2.05;;;21.30;72.80;;;;;;4881585;29;20048;-77
2022/04/15 12:49:35;;;;;;;4.25;1.98;;;21.30;70.40;;;;;;4897784;29;20048;-78
2022/04/15 12:52:12;;;;;;;3.15;2.20;;;21.30;70.40;;;;;;4887973;29;20483;-79
2022/04/15 12:54:59;;;;;;;9.18;2.38;;;21.20;69.00;;;;;;4915435;29;20537;-77
2022/04/15 12:57:29;;;;;;;8.52;1.88;;;21.10;68.80;;;;;;4914990;29;20436;-78
2022/04/15 12:59:56;;;;;;;4.47;2.50;;;21.00;66.70;;;;;;4915200;29;20060;-78
2022/04/15 13:02:23;;;;;;;2.67;1.83;;;21.00;70.40;;;;;;4914935;29;20058;-78